Time;durP1;ratioP1;P1;durP2;ratioP2;P2;SDS_P1;SDS_P2;PMS_P1;PMS_P2;Temp;Humidity;BMP_temperature;BMP_pressure;BME280_temperature;BME280_humidity;BME280_pressure;Samples;Min_cycle;Max_cycle;Signal;HPM_P1;HPM_P2
2022/08/13 00:02:16;;;;;;;6.65;3.58;;;22.70;45.20;;;;;;5113769;28;20028;-73
2022/08/13 00:05:23;;;;;;;5.60;3.40;;;22.70;44.40;;;;;;5113465;28;20072;-73
2022/08/13 00:07:39;;;;;;;6.65;3.22;;;22.70;44.10;;;;;;5112437;28;20028;-73
2022/08/13 00:10:10;;;;;;;7.85;3.30;;;22.70;44.40;;;;;;5113746;28;20027;-73
2022/08/13 00:15:36;;;;;;;4.32;3.40;;;22.70;46.10;;;;;;5113829;28;20066;-73
2022/08/13 00:18:08;;;;;;;5.90;3.47;;;22.60;46.50;;;;;;5113692;28;20020;-73
2022/08/13 00:20:45;;;;;;;3.92;3.45;;;22.50;46.50;;;;;;5113578;28;20027;-73
2022/08/13 00:23:16;;;;;;;4.68;3.42;;;22.50;46.70;;;;;;5113593;28;20027;-73
2022/08/13 00:25:43;;;;;;;6.40;3.58;;;22.40;46.20;;;;;;5113528;28;20020;-73
2022/08/13 00:28:09;;;;;;;5.35;3.65;;;22.40;46.50;;;;;;5113376;28;20024;-73
2022/08/13 00:30:37;;;;;;;5.72;3.58;;;22.40;47.10;;;;;;5113413;28;20044;-73
2022/08/13 00:33:07;;;;;;;7.43;3.70;;;22.40;45.50;;;;;;5113379;28;20027;-73
2022/08/13 00:35:36;;;;;;;5.28;3.83;;;22.30;45.20;;;;;;5113527;28;20023;-73
2022/08/13 00:38:05;;;;;;;6.18;3.80;;;22.30;46.10;;;;;;5113362;28;20023;-73
2022/08/13 00:40:31;;;;;;;13.77;4.20;;;22.30;46.10;;;;;;5113336;28;20017;-73
2022/08/13 00:43:04;;;;;;;9.43;4.05;;;22.20;46.30;;;;;;5113300;28;20027;-73
2022/08/13 00:45:32;;;;;;;7.93;3.65;;;22.30;46.00;;;;;;5112386;28;20024;-73
2022/08/13 00:50:43;;;;;;;9.45;4.07;;;22.20;46.40;;;;;;5117541;28;20066;-73
2022/08/13 00:53:16;;;;;;;7.30;4.18;;;22.20;46.30;;;;;;5117244;28;20032;-73
2022/08/13 00:55:48;;;;;;;5.43;4.00;;;22.10;46.40;;;;;;5117377;28;20028;-73
2022/08/13 00:58:16;;;;;;;5.70;4.15;;;22.10;46.90;;;;;;5117354;28;20028;-73
2022/08/13 01:00:46;;;;;;;8.50;4.18;;;22.00;47.10;;;;;;5117099;28;20024;-73
2022/08/13 01:03:12;;;;;;;6.82;4.15;;;22.00;46.90;;;;;;5117072;28;20023;-73
2022/08/13 01:05:41;;;;;;;5.38;3.63;;;21.90;47.10;;;;;;5116801;28;20044;-73
2022/08/13 01:08:08;;;;;;;6.90;4.60;;;21.80;47.00;;;;;;5116921;28;20042;-73
2022/08/13 01:10:34;;;;;;;6.20;4.25;;;22.00;46.90;;;;;;5116888;28;20020;-73
2022/08/13 01:13:00;;;;;;;6.78;4.15;;;22.00;47.20;;;;;;5116869;28;20030;-73
2022/08/13 01:15:27;;;;;;;6.65;4.10;;;21.90;48.10;;;;;;5116795;28;20047;-73
2022/08/13 01:17:54;;;;;;;8.88;4.05;;;21.90;48.40;;;;;;5116759;28;20045;-73
2022/08/13 01:20:21;;;;;;;6.30;4.25;;;21.80;48.10;;;;;;5116742;28;20036;-73
2022/08/13 01:22:52;;;;;;;4.95;4.00;;;21.90;48.50;;;;;;5116706;28;20020;-73
2022/08/13 01:25:20;;;;;;;7.35;3.90;;;21.80;48.10;;;;;;5116528;28;20060;-73
2022/08/13 01:27:46;;;;;;;8.10;4.05;;;21.70;48.70;;;;;;5116573;28;20066;-73
2022/08/13 01:30:19;;;;;;;5.07;4.00;;;21.70;48.70;;;;;;5116444;28;20024;-73
2022/08/13 01:32:46;;;;;;;9.25;3.80;;;21.60;48.10;;;;;;5116537;28;20027;-73
2022/08/13 01:35:12;;;;;;;5.30;4.00;;;21.60;47.90;;;;;;5116468;28;20024;-73
2022/08/13 01:37:39;;;;;;;7.15;4.55;;;21.70;49.10;;;;;;5115459;28;20084;-73
2022/08/13 01:40:06;;;;;;;9.35;4.30;;;21.80;48.50;;;;;;5116357;28;20079;-73
2022/08/13 01:42:42;;;;;;;6.05;3.40;;;21.80;48.10;;;;;;5116257;28;20024;-73
2022/08/13 01:45:09;;;;;;;7.20;4.85;;;21.80;48.80;;;;;;5116180;28;20035;-73
2022/08/13 01:50:29;;;;;;;6.63;4.10;;;21.50;49.50;;;;;;5116243;28;20035;-73
2022/08/13 01:53:07;;;;;;;5.75;4.07;;;21.60;50.00;;;;;;5116146;28;20028;-73
2022/08/13 01:55:54;;;;;;;4.85;3.67;;;21.70;49.10;;;;;;5116127;28;20024;-73
2022/08/13 01:58:22;;;;;;;6.20;3.67;;;21.70;49.00;;;;;;5116080;28;20020;-73
2022/08/13 02:00:52;;;;;;;6.47;3.90;;;21.40;49.70;;;;;;5115113;28;20460;-73
2022/08/13 02:03:19;;;;;;;4.07;3.50;;;21.30;49.50;;;;;;5115917;28;20024;-73
2022/08/13 02:05:50;;;;;;;6.28;3.60;;;21.30;49.50;;;;;;5115706;28;20048;-73
2022/08/13 02:08:22;;;;;;;8.60;4.23;;;21.30;49.20;;;;;;5115898;28;20055;-73
2022/08/13 02:10:50;;;;;;;4.10;3.10;;;21.20;50.00;;;;;;5115875;28;20310;-73
2022/08/13 02:13:22;;;;;;;4.45;3.35;;;21.10;50.10;;;;;;5115873;28;20024;-73
2022/08/13 02:15:50;;;;;;;5.60;3.47;;;21.10;50.10;;;;;;5115688;28;20020;-73
2022/08/13 02:18:19;;;;;;;6.82;3.40;;;21.10;50.60;;;;;;5115704;28;20031;-73
2022/08/13 02:20:47;;;;;;;4.07;3.38;;;21.20;50.40;;;;;;5115657;28;20031;-73
2022/08/13 02:23:19;;;;;;;6.65;3.50;;;21.20;50.50;;;;;;5115471;28;20021;-73
2022/08/13 02:25:45;;;;;;;5.13;3.50;;;21.10;51.10;;;;;;5115534;28;20080;-73
2022/08/13 02:28:15;;;;;;;5.40;3.55;;;21.00;50.70;;;;;;5115360;28;20025;-73
2022/08/13 02:30:42;;;;;;;4.90;3.47;;;20.90;50.50;;;;;;5115398;28;20028;-73
2022/08/13 02:33:08;;;;;;;6.20;3.40;;;20.70;51.10;;;;;;5115345;28;20024;-73
2022/08/13 02:35:35;;;;;;;6.70;3.28;;;20.60;50.80;;;;;;5115267;28;20475;-73
2022/08/13 02:38:02;;;;;;;6.13;3.35;;;20.80;50.60;;;;;;5115266;28;20020;-73
2022/08/13 02:43:12;;;;;;;5.55;3.42;;;20.80;50.80;;;;;;5115112;28;20400;-73
2022/08/13 02:45:39;;;;;;;4.30;3.15;;;20.80;51.20;;;;;;5115093;28;20020;-73
2022/08/13 02:48:06;;;;;;;5.60;3.58;;;20.70;51.40;;;;;;5115021;28;20062;-73
2022/08/13 02:50:33;;;;;;;5.13;3.88;;;20.70;51.50;;;;;;5114960;28;20028;-73
2022/08/13 02:53:00;;;;;;;5.13;3.80;;;20.60;51.80;;;;;;5114956;28;20039;-73
2022/08/13 02:55:29;;;;;;;6.68;3.65;;;20.50;53.30;;;;;;5114901;28;20051;-73
2022/08/13 02:57:55;;;;;;;4.38;3.40;;;20.40;52.90;;;;;;5114863;28;20058;-73
2022/08/13 03:00:21;;;;;;;6.10;3.60;;;20.40;53.10;;;;;;5114790;28;20028;-73
2022/08/13 03:02:48;;;;;;;5.30;3.30;;;20.30;54.60;;;;;;5114751;28;20036;-73
2022/08/13 03:05:16;;;;;;;6.80;3.47;;;20.20;53.80;;;;;;5114465;28;20040;-73
2022/08/13 03:07:44;;;;;;;4.82;3.53;;;20.20;55.00;;;;;;5114797;28;20100;-73
2022/08/13 03:10:11;;;;;;;4.82;3.88;;;20.20;55.10;;;;;;5114462;28;20027;-73
2022/08/13 03:12:45;;;;;;;5.97;3.65;;;20.20;54.70;;;;;;5114565;28;20027;-73
2022/08/13 03:15:13;;;;;;;6.72;4.10;;;20.20;54.90;;;;;;5114563;28;20487;-73
2022/08/13 03:17:40;;;;;;;7.05;3.72;;;20.00;55.90;;;;;;5114464;28;20024;-73
2022/08/13 03:20:08;;;;;;;5.13;3.45;;;20.00;56.00;;;;;;5114406;28;20051;-73
2022/08/13 03:22:47;;;;;;;5.85;3.80;;;20.10;55.70;;;;;;5114359;28;20084;-73
2022/08/13 03:25:14;;;;;;;4.72;3.58;;;20.10;54.90;;;;;;5114257;28;20072;-73
2022/08/13 03:27:40;;;;;;;8.20;4.10;;;20.10;54.50;;;;;;5114419;28;20053;-73
2022/08/13 03:30:06;;;;;;;6.45;4.10;;;20.00;54.50;;;;;;5114157;28;20055;-73
2022/08/13 03:32:45;;;;;;;5.10;4.07;;;19.90;54.90;;;;;;5114207;28;20020;-73
2022/08/13 03:35:22;;;;;;;5.88;4.00;;;20.00;55.50;;;;;;5114347;28;20028;-73
2022/08/13 03:37:57;;;;;;;6.75;4.00;;;20.10;55.30;;;;;;5114154;28;20032;-73
2022/08/13 03:40:25;;;;;;;4.20;3.67;;;19.90;55.60;;;;;;5114110;28;20024;-73
2022/08/13 03:42:52;;;;;;;5.93;3.80;;;19.90;55.30;;;;;;5114036;28;20067;-73
2022/08/13 03:45:20;;;;;;;5.38;4.07;;;19.90;55.20;;;;;;5113971;28;20024;-73
2022/08/13 03:47:46;;;;;;;7.15;4.13;;;19.80;55.00;;;;;;5113932;28;20016;-73
2022/08/13 03:50:13;;;;;;;5.10;3.67;;;19.80;55.20;;;;;;5113926;28;20042;-73
2022/08/13 03:52:40;;;;;;;5.38;4.03;;;19.80;55.30;;;;;;5113872;28;20016;-73
2022/08/13 03:55:13;;;;;;;6.50;3.95;;;19.80;55.40;;;;;;5113814;28;20028;-73
2022/08/13 03:57:41;;;;;;;7.50;4.20;;;19.80;55.40;;;;;;5113864;28;20445;-73
2022/08/13 04:00:10;;;;;;;6.35;4.45;;;19.70;54.90;;;;;;5113747;28;20031;-73
2022/08/13 04:02:40;;;;;;;7.32;4.40;;;19.80;53.90;;;;;;5113737;28;20044;-73
2022/08/13 04:05:16;;;;;;;6.07;4.25;;;19.80;54.70;;;;;;5113429;28;20426;-73
2022/08/13 04:07:43;;;;;;;5.70;4.07;;;19.70;54.40;;;;;;5113720;28;20024;-73
2022/08/13 04:10:11;;;;;;;7.03;4.40;;;19.70;54.70;;;;;;5113650;28;20044;-73
2022/08/13 04:12:37;;;;;;;8.85;4.30;;;19.70;54.60;;;;;;5113585;28;20020;-73
2022/08/13 04:15:03;;;;;;;9.60;4.63;;;19.70;55.20;;;;;;5113594;28;20024;-73
2022/08/13 04:17:29;;;;;;;6.10;4.40;;;19.70;54.40;;;;;;5113673;28;20025;-73
2022/08/13 04:19:57;;;;;;;8.80;5.10;;;19.70;54.10;;;;;;5113502;28;20024;-73
2022/08/13 04:22:26;;;;;;;8.50;5.30;;;19.60;53.90;;;;;;5112918;28;20480;-73
2022/08/13 04:24:51;;;;;;;5.97;5.35;;;19.70;53.80;;;;;;5113416;28;20025;-73
2022/08/13 04:27:17;;;;;;;7.55;5.30;;;19.70;54.00;;;;;;5113439;28;20039;-73
2022/08/13 04:29:43;;;;;;;7.90;5.15;;;19.70;54.30;;;;;;5113493;28;20084;-73
2022/08/13 04:32:08;;;;;;;9.45;5.40;;;19.60;53.80;;;;;;5113433;28;20055;-73
2022/08/13 04:34:34;;;;;;;6.97;5.07;;;19.60;53.90;;;;;;5113379;28;20052;-73
2022/08/13 04:37:03;;;;;;;12.30;5.72;;;19.60;54.10;;;;;;5113463;28;20024;-73
2022/08/13 04:39:29;;;;;;;8.60;5.20;;;19.60;54.30;;;;;;5113364;28;20031;-73
2022/08/13 04:41:54;;;;;;;6.43;5.20;;;19.60;54.40;;;;;;5113309;28;20114;-73
2022/08/13 04:44:20;;;;;;;8.95;5.35;;;19.60;54.40;;;;;;5112277;28;20032;-73
2022/08/13 04:46:46;;;;;;;9.15;5.20;;;19.50;54.10;;;;;;5113281;28;20034;-73
2022/08/13 04:49:12;;;;;;;6.32;4.68;;;19.60;55.20;;;;;;5113289;28;20044;-73
2022/08/13 04:51:39;;;;;;;9.20;5.07;;;19.50;54.90;;;;;;5113229;28;20020;-73
2022/08/13 04:54:05;;;;;;;8.70;4.70;;;19.60;54.60;;;;;;5113218;28;20024;-73
2022/08/13 04:56:31;;;;;;;8.45;5.20;;;19.60;54.80;;;;;;5113195;28;20491;-73
2022/08/13 04:58:57;;;;;;;8.70;5.25;;;19.60;54.60;;;;;;5113160;28;20024;-73
2022/08/13 05:01:23;;;;;;;6.00;5.07;;;19.60;55.50;;;;;;5113160;28;20028;-73
2022/08/13 05:03:49;;;;;;;7.40;4.68;;;19.60;55.70;;;;;;5113014;28;20028;-73
2022/08/13 05:06:21;;;;;;;7.20;5.00;;;19.50;56.60;;;;;;5112950;28;20048;-73
2022/08/13 05:08:49;;;;;;;6.60;4.97;;;19.50;57.30;;;;;;5113108;28;20036;-73
2022/08/13 05:11:18;;;;;;;9.07;5.53;;;19.50;58.20;;;;;;5113025;28;20048;-73
2022/08/13 05:13:45;;;;;;;5.82;4.72;;;19.50;57.60;;;;;;5112924;28;20020;-73
2022/08/13 05:16:13;;;;;;;5.65;4.70;;;19.50;56.80;;;;;;5112999;28;20024;-73
2022/08/13 05:18:42;;;;;;;10.48;4.70;;;19.60;57.70;;;;;;5112998;28;20088;-73
2022/08/13 05:21:08;;;;;;;6.60;4.50;;;19.60;57.70;;;;;;5112934;28;20020;-73
2022/08/13 05:23:37;;;;;;;5.88;4.18;;;19.70;58.60;;;;;;5112918;28;20021;-73
2022/08/13 05:26:03;;;;;;;11.80;4.40;;;19.80;56.80;;;;;;5112904;28;20019;-73
2022/08/13 05:28:30;;;;;;;7.18;4.10;;;19.80;56.70;;;;;;5112808;28;20092;-73
2022/08/13 05:30:57;;;;;;;7.25;4.05;;;19.90;57.00;;;;;;5112898;28;20095;-73
2022/08/13 05:33:26;;;;;;;7.35;3.97;;;20.00;56.40;;;;;;5112860;28;20020;-73
2022/08/13 05:36:00;;;;;;;7.65;3.90;;;20.10;55.50;;;;;;5115505;28;20075;-73
2022/08/13 05:38:27;;;;;;;6.97;3.95;;;20.20;55.80;;;;;;5116635;28;20073;-73
2022/08/13 05:40:56;;;;;;;5.60;3.75;;;20.20;55.10;;;;;;5116385;28;20437;-73
2022/08/13 05:43:25;;;;;;;4.63;3.58;;;20.30;55.40;;;;;;5116277;28;20020;-73
2022/08/13 05:46:02;;;;;;;5.45;3.80;;;20.30;54.70;;;;;;5116264;28;20403;-73
2022/08/13 05:48:32;;;;;;;6.00;3.80;;;20.40;54.20;;;;;;5116256;28;20080;-73
2022/08/13 05:51:03;;;;;;;3.67;3.28;;;20.50;54.30;;;;;;5116254;28;20036;-73
2022/08/13 05:53:30;;;;;;;6.15;3.50;;;20.50;55.30;;;;;;5116189;28;20023;-73
2022/08/13 05:55:56;;;;;;;4.68;3.22;;;20.60;55.00;;;;;;5116094;28;20153;-73
2022/08/13 05:58:23;;;;;;;3.65;3.10;;;20.70;54.40;;;;;;5115171;28;20024;-73
2022/08/13 06:03:34;;;;;;;5.32;3.53;;;20.70;53.70;;;;;;5116047;28;20031;-73
2022/08/13 06:06:01;;;;;;;7.32;3.28;;;20.70;53.40;;;;;;5115718;28;20498;-73
2022/08/13 06:08:31;;;;;;;5.18;3.63;;;20.70;53.80;;;;;;5115827;28;20027;-73
2022/08/13 06:10:59;;;;;;;6.25;3.70;;;20.80;54.30;;;;;;5115944;28;20013;-73
2022/08/13 06:13:26;;;;;;;4.82;3.05;;;20.80;53.90;;;;;;5115763;28;20024;-73
2022/08/13 06:15:58;;;;;;;10.50;3.75;;;20.90;53.80;;;;;;5115674;28;20024;-73
2022/08/13 06:18:29;;;;;;;9.02;3.67;;;20.90;53.40;;;;;;5115867;28;20027;-73
2022/08/13 06:20:57;;;;;;;4.28;3.22;;;21.00;53.10;;;;;;5115642;28;20036;-73
2022/08/13 06:23:24;;;;;;;3.45;2.90;;;20.90;52.40;;;;;;5115637;28;20051;-73
2022/08/13 06:25:52;;;;;;;7.43;3.28;;;21.00;52.40;;;;;;5115513;28;20027;-73
2022/08/13 06:28:23;;;;;;;5.30;3.25;;;21.00;52.50;;;;;;5115397;28;20032;-73
2022/08/13 06:30:53;;;;;;;5.13;3.03;;;21.10;52.80;;;;;;5115481;28;20020;-73
2022/08/13 06:33:22;;;;;;;7.15;3.15;;;21.20;52.90;;;;;;5115362;28;20016;-73
2022/08/13 06:35:59;;;;;;;5.47;3.03;;;21.20;52.50;;;;;;5115320;28;20023;-73
2022/08/13 06:38:50;;;;;;;4.32;3.38;;;21.30;52.20;;;;;;5115263;28;20028;-73
2022/08/13 06:41:18;;;;;;;4.90;2.92;;;21.30;52.80;;;;;;5115246;28;20024;-73
2022/08/13 06:43:50;;;;;;;7.15;3.08;;;21.40;52.50;;;;;;5115104;28;20031;-72
2022/08/13 06:46:20;;;;;;;5.40;2.92;;;21.50;52.20;;;;;;5114624;28;20016;-72
2022/08/13 06:48:46;;;;;;;9.13;3.17;;;21.50;52.10;;;;;;5115052;28;20027;-72
2022/08/13 06:51:12;;;;;;;11.40;4.50;;;21.60;52.10;;;;;;5115024;28;20028;-72
2022/08/13 06:53:41;;;;;;;4.43;3.17;;;21.70;52.50;;;;;;5114991;28;20072;-72
2022/08/13 06:56:11;;;;;;;7.47;3.22;;;21.80;52.40;;;;;;5115031;28;20027;-72
2022/08/13 06:58:38;;;;;;;6.82;2.80;;;21.80;52.80;;;;;;5115099;28;20024;-73
2022/08/13 07:01:04;;;;;;;3.45;3.10;;;21.90;52.60;;;;;;5114789;28;20028;-73
2022/08/13 07:03:32;;;;;;;4.32;3.20;;;22.00;52.50;;;;;;5114722;28;20079;-73
2022/08/13 07:05:59;;;;;;;8.02;3.30;;;22.00;53.10;;;;;;5114566;28;20111;-73
2022/08/13 07:08:27;;;;;;;6.25;3.40;;;22.10;52.00;;;;;;5114730;28;20016;-73
2022/08/13 07:13:47;;;;;;;3.17;2.60;;;22.20;51.50;;;;;;5114849;28;20077;-73
2022/08/13 07:16:18;;;;;;;5.63;2.92;;;22.40;51.10;;;;;;5114711;28;20048;-73
2022/08/13 07:18:46;;;;;;;4.50;2.92;;;22.40;50.30;;;;;;5114689;28;20035;-73
2022/08/13 07:21:15;;;;;;;5.50;3.17;;;22.50;49.70;;;;;;5114457;28;20024;-73
2022/08/13 07:23:42;;;;;;;4.93;2.88;;;22.50;49.80;;;;;;5114320;28;20084;-73
2022/08/13 07:26:12;;;;;;;4.55;2.85;;;22.70;49.70;;;;;;5114317;28;20027;-73
2022/08/13 07:28:38;;;;;;;4.97;2.85;;;22.70;49.50;;;;;;5114399;28;20027;-73
2022/08/13 07:31:06;;;;;;;5.47;3.03;;;22.80;49.40;;;;;;5114269;28;20028;-73
2022/08/13 07:33:34;;;;;;;5.25;2.92;;;22.80;48.90;;;;;;5114221;28;20042;-73
2022/08/13 07:36:08;;;;;;;5.80;2.95;;;22.90;49.60;;;;;;5114187;28;20016;-73
2022/08/13 07:38:35;;;;;;;4.82;2.95;;;23.00;49.10;;;;;;5114173;28;20090;-73
2022/08/13 07:41:04;;;;;;;6.38;2.83;;;23.10;48.50;;;;;;5114111;28;20032;-73
2022/08/13 07:43:34;;;;;;;3.22;2.53;;;23.20;47.80;;;;;;5113952;28;20025;-73
2022/08/13 07:46:07;;;;;;;11.95;3.30;;;23.20;48.50;;;;;;5114166;28;20016;-73
2022/08/13 07:48:34;;;;;;;5.72;3.00;;;23.30;48.80;;;;;;5113002;28;20024;-72
2022/08/13 07:51:02;;;;;;;4.53;2.75;;;23.40;47.90;;;;;;5113936;28;20016;-73
2022/08/13 07:53:28;;;;;;;5.20;3.38;;;23.50;48.00;;;;;;5113928;28;20042;-73
2022/08/13 07:55:55;;;;;;;6.70;3.15;;;23.60;47.70;;;;;;5113879;28;20020;-72
2022/08/13 07:58:27;;;;;;;3.17;2.83;;;23.70;47.20;;;;;;5113048;28;20016;-72
2022/08/13 08:00:57;;;;;;;6.30;3.30;;;23.80;47.40;;;;;;5113853;28;20027;-73
2022/08/13 08:03:25;;;;;;;7.32;3.22;;;23.80;46.50;;;;;;5113884;28;20073;-72
2022/08/13 08:05:53;;;;;;;4.90;3.28;;;23.90;45.40;;;;;;5113418;28;20048;-73
2022/08/13 08:08:19;;;;;;;6.00;3.00;;;23.90;46.80;;;;;;5113699;28;20024;-72
2022/08/13 08:10:46;;;;;;;5.88;3.33;;;24.00;46.50;;;;;;5113662;28;20050;-73
2022/08/13 08:13:13;;;;;;;3.90;2.97;;;24.10;46.40;;;;;;5113612;28;20086;-72
2022/08/13 08:15:44;;;;;;;6.25;3.20;;;24.20;45.60;;;;;;5113594;28;20031;-73
2022/08/13 08:18:10;;;;;;;8.48;3.50;;;24.30;45.60;;;;;;5113609;28;20031;-73
2022/08/13 08:20:36;;;;;;;5.53;2.92;;;24.40;45.20;;;;;;5113537;28;20047;-72
2022/08/13 08:23:02;;;;;;;4.03;3.03;;;24.40;46.70;;;;;;5113521;28;20066;-72
2022/08/13 08:25:28;;;;;;;5.60;2.80;;;24.50;45.40;;;;;;5113423;28;20031;-73
2022/08/13 08:27:54;;;;;;;3.97;3.00;;;24.60;46.10;;;;;;5113408;28;20024;-73
2022/08/13 08:30:20;;;;;;;6.00;2.90;;;24.70;44.70;;;;;;5113470;28;20062;-73
2022/08/13 08:32:53;;;;;;;5.55;2.95;;;24.80;43.90;;;;;;5113401;28;20039;-73
2022/08/13 08:35:22;;;;;;;;;;;24.90;44.30;;;;;;5113988;28;20040;-72
2022/08/13 08:43:36;;;;;;;5.22;2.50;;;25.10;44.10;;;;;;5113481;28;20035;-73
2022/08/13 08:46:03;;;;;;;5.22;2.88;;;25.20;43.40;;;;;;5113505;28;20012;-72
2022/08/13 08:48:32;;;;;;;5.80;2.70;;;25.40;43.20;;;;;;5113260;28;20021;-73
2022/08/13 08:50:59;;;;;;;2.83;2.40;;;25.40;42.10;;;;;;5113223;28;20070;-72
2022/08/13 08:53:28;;;;;;;4.43;3.15;;;25.40;43.20;;;;;;5113262;28;20025;-72
2022/08/13 08:55:54;;;;;;;3.53;2.60;;;25.50;41.80;;;;;;5113151;28;20042;-73
2022/08/13 08:58:21;;;;;;;4.57;2.40;;;25.60;42.70;;;;;;5113178;28;20071;-72
2022/08/13 09:00:49;;;;;;;5.55;2.33;;;25.70;41.70;;;;;;5113235;28;20024;-72
2022/08/13 09:03:18;;;;;;;3.40;2.30;;;25.70;41.90;;;;;;5113179;28;20031;-72
2022/08/13 09:05:48;;;;;;;4.15;2.60;;;25.80;42.40;;;;;;5112946;28;20036;-73
2022/08/13 09:08:16;;;;;;;4.70;2.58;;;26.00;42.10;;;;;;5113356;28;20012;-73
2022/08/13 09:10:44;;;;;;;6.70;2.90;;;26.10;42.70;;;;;;5117008;28;20026;-73
2022/08/13 09:13:14;;;;;;;3.60;2.47;;;26.20;42.40;;;;;;5116935;28;20016;-72
2022/08/13 09:15:40;;;;;;;4.22;3.05;;;26.40;42.00;;;;;;5116879;28;20498;-72
2022/08/13 09:18:07;;;;;;;4.03;2.38;;;26.40;41.90;;;;;;5116829;28;20032;-72
2022/08/13 09:20:33;;;;;;;6.70;2.90;;;26.50;42.00;;;;;;5116793;28;20029;-72
2022/08/13 09:23:13;;;;;;;7.05;2.67;;;26.60;42.30;;;;;;5116725;28;20020;-72
2022/08/13 09:25:46;;;;;;;2.40;2.20;;;26.70;40.80;;;;;;5116695;28;20020;-72
2022/08/13 09:28:12;;;;;;;6.53;2.75;;;26.80;41.00;;;;;;5116726;28;20028;-73
2022/08/13 09:30:40;;;;;;;3.17;2.35;;;26.90;40.40;;;;;;5116563;28;20024;-72
2022/08/13 09:33:05;;;;;;;7.80;2.58;;;26.90;40.80;;;;;;5116571;28;20027;-73
2022/08/13 09:35:32;;;;;;;7.65;2.65;;;27.10;39.70;;;;;;5116499;28;20032;-73
2022/08/13 09:38:00;;;;;;;3.17;2.38;;;27.10;39.40;;;;;;5116419;28;20024;-72
2022/08/13 09:40:28;;;;;;;3.70;2.40;;;27.20;39.80;;;;;;5116550;28;20028;-73
2022/08/13 09:43:02;;;;;;;3.83;2.22;;;27.30;40.40;;;;;;5116389;28;20398;-73
2022/08/13 09:45:29;;;;;;;4.10;2.40;;;27.40;39.00;;;;;;5116271;28;20018;-73
2022/08/13 09:47:56;;;;;;;2.95;2.10;;;27.50;39.60;;;;;;5116230;28;20030;-73
2022/08/13 09:50:25;;;;;;;3.88;2.00;;;27.60;37.70;;;;;;5116221;28;20020;-73
2022/08/13 09:52:52;;;;;;;3.70;1.88;;;27.60;36.40;;;;;;5116203;28;20032;-73
2022/08/13 09:55:19;;;;;;;2.53;1.98;;;27.70;35.80;;;;;;5116153;28;20028;-73
2022/08/13 09:57:49;;;;;;;4.43;2.30;;;27.80;36.70;;;;;;5116100;28;20055;-73
2022/08/13 10:00:21;;;;;;;3.03;2.10;;;27.90;37.30;;;;;;5116012;28;20028;-73
2022/08/13 10:02:54;;;;;;;2.67;2.17;;;28.00;36.80;;;;;;5116000;28;20031;-73
2022/08/13 10:05:20;;;;;;;3.10;2.10;;;28.10;35.60;;;;;;5115800;28;20078;-73
2022/08/13 10:07:46;;;;;;;4.13;2.20;;;28.10;35.80;;;;;;5115917;28;20024;-73
2022/08/13 10:10:12;;;;;;;3.67;2.15;;;28.10;35.60;;;;;;5115991;28;20082;-73
2022/08/13 10:12:39;;;;;;;3.50;2.00;;;28.30;36.90;;;;;;5115879;28;20032;-73
2022/08/13 10:15:06;;;;;;;4.80;2.28;;;28.40;34.00;;;;;;5115766;28;20047;-73
2022/08/13 10:17:53;;;;;;;3.17;1.90;;;28.50;35.60;;;;;;5115643;28;20024;-73
2022/08/13 10:20:29;;;;;;;6.00;1.90;;;28.60;34.40;;;;;;5114923;28;20028;-73
2022/08/13 10:22:56;;;;;;;3.05;2.08;;;28.60;33.60;;;;;;5115661;28;20024;-73
2022/08/13 10:25:24;;;;;;;2.78;2.00;;;28.60;34.70;;;;;;5115451;28;20024;-73
2022/08/13 10:27:50;;;;;;;3.50;2.13;;;28.70;34.50;;;;;;5115407;28;20020;-72
2022/08/13 10:30:23;;;;;;;3.28;2.10;;;28.80;33.60;;;;;;5115461;28;20029;-73
2022/08/13 10:32:49;;;;;;;2.80;2.20;;;28.90;34.00;;;;;;5115426;28;20024;-73
2022/08/13 10:35:17;;;;;;;2.58;2.20;;;28.90;34.00;;;;;;5115368;28;20089;-72
2022/08/13 10:37:49;;;;;;;3.88;1.85;;;29.00;32.40;;;;;;5115310;28;20046;-73
2022/08/13 10:40:15;;;;;;;3.40;1.88;;;29.10;31.90;;;;;;5115262;28;20032;-73
2022/08/13 10:42:44;;;;;;;3.45;2.10;;;29.00;31.80;;;;;;5115206;28;20028;-72
2022/08/13 10:45:13;;;;;;;2.80;1.80;;;29.10;31.30;;;;;;5115076;28;20024;-72
2022/08/13 10:47:49;;;;;;;2.42;1.90;;;29.10;32.00;;;;;;5115201;28;20055;-73
2022/08/13 10:50:17;;;;;;;4.93;1.90;;;29.30;31.80;;;;;;5115046;28;20035;-72
2022/08/13 10:52:43;;;;;;;1.90;1.80;;;29.30;31.10;;;;;;5115010;28;20016;-73
2022/08/13 10:55:14;;;;;;;3.72;1.90;;;29.40;30.90;;;;;;5114947;28;20038;-72
2022/08/13 10:57:42;;;;;;;2.13;1.92;;;29.40;30.90;;;;;;5115074;28;20036;-72
2022/08/13 11:00:11;;;;;;;2.13;1.88;;;29.50;31.80;;;;;;5114870;28;20020;-72
2022/08/13 11:02:37;;;;;;;1.70;1.60;;;29.70;31.10;;;;;;5114811;28;20024;-73
2022/08/13 11:05:07;;;;;;;4.63;1.92;;;29.70;29.50;;;;;;5114380;28;20071;-72
2022/08/13 11:07:38;;;;;;;2.03;1.80;;;29.70;30.40;;;;;;5113855;28;20058;-72
2022/08/13 11:10:05;;;;;;;2.70;2.00;;;29.70;30.50;;;;;;5114653;28;20025;-72
2022/08/13 11:12:32;;;;;;;4.88;2.20;;;29.80;31.80;;;;;;5114626;28;20020;-73
2022/08/13 11:14:58;;;;;;;1.92;1.75;;;29.90;30.10;;;;;;5114724;28;20046;-73
2022/08/13 11:17:23;;;;;;;2.38;1.63;;;29.90;29.90;;;;;;5114529;28;20036;-72
2022/08/13 11:19:49;;;;;;;3.90;1.70;;;29.80;29.30;;;;;;5114515;28;20028;-72
2022/08/13 11:22:19;;;;;;;2.58;1.85;;;29.90;29.80;;;;;;5114430;28;20102;-73
2022/08/13 11:24:45;;;;;;;2.15;1.60;;;30.00;29.80;;;;;;5114359;28;20028;-73
2022/08/13 11:27:11;;;;;;;1.80;1.63;;;30.10;30.40;;;;;;5114348;28;20020;-72
2022/08/13 11:29:37;;;;;;;2.75;1.90;;;30.20;30.30;;;;;;5114272;28;20031;-72
2022/08/13 11:32:03;;;;;;;2.33;2.13;;;30.30;29.00;;;;;;5114203;28;20028;-72
2022/08/13 11:34:29;;;;;;;1.70;1.60;;;30.30;28.40;;;;;;5113216;28;20031;-72
2022/08/13 11:36:55;;;;;;;3.78;1.67;;;30.30;28.10;;;;;;5114194;28;20032;-72
2022/08/13 11:39:21;;;;;;;3.00;1.70;;;30.20;28.40;;;;;;5114147;28;20039;-73
2022/08/13 11:41:46;;;;;;;2.50;1.77;;;30.30;29.30;;;;;;5114116;28;20024;-72
2022/08/13 11:44:12;;;;;;;4.35;1.60;;;30.40;29.60;;;;;;5113985;28;20080;-73
2022/08/13 11:46:38;;;;;;;2.22;1.60;;;30.60;29.30;;;;;;5114175;28;20565;-72
2022/08/13 11:49:04;;;;;;;3.05;1.48;;;30.70;28.90;;;;;;5113110;28;20035;-72
2022/08/13 11:51:30;;;;;;;4.15;2.95;;;30.60;28.00;;;;;;5114044;28;20035;-72
2022/08/13 11:53:56;;;;;;;3.35;1.58;;;30.70;27.50;;;;;;5113883;28;20070;-72
2022/08/13 11:56:22;;;;;;;2.22;1.92;;;30.70;28.60;;;;;;5114008;28;20044;-72
2022/08/13 11:58:47;;;;;;;2.00;1.48;;;30.70;28.10;;;;;;5113846;28;20032;-72
2022/08/13 12:01:16;;;;;;;2.22;1.50;;;30.50;26.70;;;;;;5113936;28;20051;-72
2022/08/13 12:03:42;;;;;;;3.33;1.80;;;30.50;28.40;;;;;;5113831;28;20019;-72
2022/08/13 12:06:08;;;;;;;1.85;1.50;;;30.50;27.70;;;;;;5113532;28;20048;-72
2022/08/13 12:08:33;;;;;;;3.65;1.58;;;30.60;27.70;;;;;;5113715;28;20020;-72
2022/08/13 12:10:59;;;;;;;3.15;1.88;;;30.60;27.10;;;;;;5113665;28;20020;-72
2022/08/13 12:13:25;;;;;;;2.65;1.65;;;30.70;27.20;;;;;;5113668;28;20133;-72
2022/08/13 12:15:50;;;;;;;1.83;1.40;;;30.80;27.30;;;;;;5113616;28;20039;-72
2022/08/13 12:18:18;;;;;;;1.95;1.73;;;30.90;27.80;;;;;;5113571;28;20048;-73
2022/08/13 12:20:43;;;;;;;2.00;1.80;;;31.00;27.20;;;;;;5112531;28;20376;-72
2022/08/13 12:23:09;;;;;;;2.25;1.58;;;31.00;26.30;;;;;;5112495;28;20035;-72
2022/08/13 12:25:36;;;;;;;3.67;2.08;;;30.90;27.50;;;;;;5113582;28;20036;-72
2022/08/13 12:28:31;;;;;;;4.00;1.33;;;31.00;26.70;;;;;;5113437;28;20028;-72
2022/08/13 12:30:58;;;;;;;2.65;1.52;;;31.00;27.00;;;;;;5108830;28;20047;-72
2022/08/13 12:33:28;;;;;;;1.90;1.70;;;31.20;28.00;;;;;;5113413;28;20027;-72
2022/08/13 12:35:53;;;;;;;3.65;1.80;;;31.30;27.60;;;;;;5113375;28;20020;-72
2022/08/13 12:38:19;;;;;;;6.85;1.92;;;31.50;28.20;;;;;;5113339;28;20020;-72
2022/08/13 12:40:46;;;;;;;3.42;1.98;;;31.50;26.40;;;;;;5113391;28;20031;-72
2022/08/13 12:43:12;;;;;;;2.75;1.92;;;31.50;26.40;;;;;;5113489;28;20024;-72
2022/08/13 12:45:39;;;;;;;2.80;1.85;;;31.40;27.40;;;;;;5116351;28;20027;-72
2022/08/13 12:48:31;;;;;;;5.22;1.85;;;31.60;27.80;;;;;;5117458;28;20020;-72
2022/08/13 12:50:57;;;;;;;6.40;1.75;;;31.80;27.40;;;;;;5114549;28;20083;-72
2022/08/13 12:53:23;;;;;;;3.45;1.90;;;31.80;27.40;;;;;;5117351;28;20035;-72
2022/08/13 12:55:49;;;;;;;2.10;1.90;;;31.90;28.20;;;;;;5117270;28;20036;-73
2022/08/13 12:58:26;;;;;;;1.90;1.80;;;32.00;28.50;;;;;;5116359;28;20024;-72
2022/08/13 13:00:54;;;;;;;3.17;1.88;;;32.30;28.70;;;;;;5117403;28;20031;-72
2022/08/13 13:03:22;;;;;;;2.40;2.00;;;32.40;28.90;;;;;;5117157;28;20169;-73
2022/08/13 13:05:49;;;;;;;2.83;1.80;;;32.40;28.90;;;;;;5115960;28;20040;-72
2022/08/13 13:08:25;;;;;;;2.10;1.90;;;32.50;28.60;;;;;;5116988;28;20035;-72
2022/08/13 13:10:52;;;;;;;2.63;1.80;;;32.60;27.90;;;;;;5117159;28;20024;-72
2022/08/13 13:13:21;;;;;;;2.35;1.77;;;32.60;27.80;;;;;;5116952;28;20028;-72
2022/08/13 13:15:47;;;;;;;4.22;2.28;;;32.60;27.50;;;;;;5116927;28;20374;-73
2022/08/13 13:18:16;;;;;;;1.98;1.80;;;32.70;27.30;;;;;;5116883;28;20025;-73